Time;durP1;ratioP1;P1;durP2;ratioP2;P2;SDS_P1;SDS_P2;PMS_P1;PMS_P2;Temp;Humidity;BMP_temperature;BMP_pressure;BME280_temperature;BME280_humidity;BME280_pressure;Samples;Min_cycle;Max_cycle;Signal;HPM_P1;HPM_P2
2021/12/28 07:58:56;;;;;;;6.13;2.70;;;;;;;8.50;100.00;99041.63;5322448;27;20343;-66
2021/12/28 08:01:28;;;;;;;8.23;3.17;;;;;;;8.52;100.00;99028.31;5321737;28;20104;-66
2021/12/28 08:03:59;;;;;;;6.53;3.13;;;;;;;8.54;100.00;99023.28;5322634;28;20395;-67
2021/12/28 08:06:30;;;;;;;6.05;3.45;;;;;;;8.57;100.00;99032.88;5307523;28;20514;-65
2021/12/28 08:09:02;;;;;;;6.30;3.05;;;;;;;8.59;100.00;99036.94;5282511;28;20051;-65
2021/12/28 08:11:34;;;;;;;6.85;3.22;;;;;;;8.62;100.00;99028.00;5298242;28;20035;-65
2021/12/28 08:14:06;;;;;;;5.47;2.72;;;;;;;8.64;100.00;99028.50;5296177;28;20025;-66
2021/12/28 08:16:37;;;;;;;6.60;3.10;;;;;;;8.66;100.00;99040.03;5277815;28;20048;-67
2021/12/28 08:19:08;;;;;;;6.18;2.67;;;;;;;8.69;100.00;99038.56;5280059;28;20489;-66
2021/12/28 08:21:40;;;;;;;6.65;2.83;;;;;;;8.70;100.00;99031.94;5278917;28;20079;-66
2021/12/28 08:24:11;;;;;;;6.55;3.17;;;;;;;8.71;100.00;99037.13;5293960;28;20046;-65
2021/12/28 08:26:43;;;;;;;4.90;3.53;;;;;;;8.75;100.00;99030.97;5300282;28;20036;-66
2021/12/28 08:29:14;;;;;;;5.65;3.00;;;;;;;8.76;100.00;99027.88;5297852;28;20089;-65
2021/12/28 08:31:45;;;;;;;4.80;2.65;;;;;;;8.80;100.00;99020.56;5294019;28;20025;-66
2021/12/28 08:34:16;;;;;;;5.10;2.95;;;;;;;8.84;100.00;99029.84;5279829;28;20028;-68
2021/12/28 08:36:48;;;;;;;4.00;2.97;;;;;;;8.85;100.00;99020.41;5279047;28;20039;-66
2021/12/28 08:39:19;;;;;;;5.47;3.30;;;;;;;8.87;100.00;99018.16;5289710;28;20111;-65
2021/12/28 08:41:50;;;;;;;5.57;3.22;;;;;;;8.93;100.00;99018.81;5320770;28;20395;-65
2021/12/28 08:44:22;;;;;;;6.55;3.63;;;;;;;8.93;100.00;99021.56;5311366;28;20035;-66
2021/12/28 08:46:54;;;;;;;7.30;4.25;;;;;;;8.93;100.00;99016.03;5300557;28;20050;-66
2021/12/28 08:49:26;;;;;;;3.33;2.92;;;;;;;9.02;100.00;99018.81;5300393;28;20020;-66
2021/12/28 08:51:57;;;;;;;5.32;3.78;;;;;;;8.99;100.00;99019.47;5299031;28;20027;-67
2021/12/28 08:54:28;;;;;;;6.43;5.28;;;;;;;9.07;100.00;99010.34;5281794;28;20025;-66
2021/12/28 08:57:00;;;;;;;6.53;4.30;;;;;;;9.04;100.00;99011.81;5281369;28;20048;-67
2021/12/28 08:59:31;;;;;;;4.88;4.32;;;;;;;9.06;100.00;99004.00;5299667;28;20499;-64
2021/12/28 09:02:03;;;;;;;5.97;4.53;;;;;;;9.11;100.00;99009.38;5299027;28;20048;-64
2021/12/28 09:04:36;;;;;;;5.43;4.90;;;;;;;9.08;100.00;99012.81;5299085;28;20111;-67
2021/12/28 09:07:08;;;;;;;11.13;10.00;;;;;;;9.13;100.00;99007.13;5300297;28;20032;-64
2021/12/28 09:09:40;;;;;;;6.75;5.15;;;;;;;9.11;100.00;99009.38;5285418;28;20107;-63
2021/12/28 09:12:15;;;;;;;4.70;4.20;;;;;;;9.13;100.00;99007.13;5264375;28;20029;-63
2021/12/28 09:14:46;;;;;;;6.28;5.68;;;;;;;9.13;100.00;99003.53;5278360;28;20029;-63
2021/12/28 09:17:17;;;;;;;5.40;4.90;;;;;;;9.14;100.00;99005.97;5283733;28;20143;-63
2021/12/28 09:19:49;;;;;;;7.40;6.13;;;;;;;9.13;100.00;98993.28;5269077;28;20025;-63
2021/12/28 09:22:20;;;;;;;7.90;6.97;;;;;;;9.17;100.00;99001.72;5275259;28;20040;-64
2021/12/28 09:24:51;;;;;;;7.35;6.53;;;;;;;9.18;100.00;98994.25;5284465;28;20060;-63
2021/12/28 09:27:23;;;;;;;16.67;13.43;;;;;;;9.19;100.00;98996.69;5285249;28;20020;-63
2021/12/28 09:29:54;;;;;;;6.85;6.22;;;;;;;9.24;100.00;98995.72;5273910;28;20025;-63
2021/12/28 09:32:25;;;;;;;5.90;5.38;;;;;;;9.23;100.00;98986.63;5263765;28;20064;-63
2021/12/28 09:34:56;;;;;;;8.00;7.20;;;;;;;9.23;100.00;98985.78;5270280;28;20074;-63
2021/12/28 09:37:28;;;;;;;6.20;5.60;;;;;;;9.23;100.00;98983.03;5284953;28;20020;-62
2021/12/28 09:40:00;;;;;;;7.68;5.97;;;;;;;9.25;100.00;98984.31;5284747;28;20024;-63
2021/12/28 09:42:32;;;;;;;6.68;5.97;;;;;;;9.25;100.00;98972.44;5285181;28;20120;-63
2021/12/28 09:45:06;;;;;;;6.75;6.15;;;;;;;9.23;100.00;98970.03;5273933;28;20108;-63
2021/12/28 09:47:41;;;;;;;6.78;6.28;;;;;;;9.24;100.00;98970.84;5282738;28;20028;-63
2021/12/28 09:50:15;;;;;;;6.93;6.28;;;;;;;9.26;100.00;98968.56;5285327;28;20058;-65
2021/12/28 09:52:49;;;;;;;6.50;5.90;;;;;;;9.26;100.00;98974.09;5283163;28;20024;-64
2021/12/28 09:55:23;;;;;;;6.75;6.05;;;;;;;9.28;100.00;98963.50;5283666;28;20024;-63
2021/12/28 09:57:55;;;;;;;6.20;5.70;;;;;;;9.30;100.00;98963.97;5281986;28;20048;-63
2021/12/28 10:00:28;;;;;;;5.75;4.85;;;;;;;9.34;100.00;98962.19;5283970;28;20419;-65
2021/12/28 10:02:59;;;;;;;5.63;5.15;;;;;;;9.36;100.00;98957.16;5284556;28;20040;-65
2021/12/28 10:05:31;;;;;;;5.25;4.75;;;;;;;9.37;100.00;98956.00;5275148;28;20024;-65
2021/12/28 10:08:04;;;;;;;5.50;5.00;;;;;;;9.42;100.00;98961.38;5284129;28;20111;-65
2021/12/28 10:10:38;;;;;;;5.28;4.88;;;;;;;9.45;100.00;98957.13;5284407;28;20025;-66
2021/12/28 10:13:18;;;;;;;5.57;5.07;;;;;;;9.47;100.00;98944.59;5276200;28;20036;-65
2021/12/28 10:15:52;;;;;;;5.60;4.85;;;;;;;9.45;100.00;98941.34;5263248;28;20021;-65
2021/12/28 10:18:23;;;;;;;5.70;4.60;;;;;;;9.48;100.00;98937.91;5277287;28;20028;-64
2021/12/28 10:20:58;;;;;;;5.13;4.72;;;;;;;9.50;100.00;98935.63;5283708;28;20044;-64
2021/12/28 10:23:32;;;;;;;4.30;3.90;;;;;;;9.52;100.00;98922.28;5283317;28;20115;-65
2021/12/28 10:26:07;;;;;;;4.03;3.65;;;;;;;9.60;100.00;98912.34;5283537;28;20507;-68
2021/12/28 10:28:38;;;;;;;3.78;3.38;;;;;;;9.67;100.00;98911.84;5267342;28;20354;-66
2021/12/28 10:31:18;;;;;;;4.38;3.30;;;;;;;9.68;100.00;98905.16;5262652;28;20039;-67
2021/12/28 10:33:55;;;;;;;4.30;3.90;;;;;;;9.75;100.00;98897.16;5261828;28;20029;-67
2021/12/28 10:36:33;;;;;;;4.35;2.88;;;;;;;9.79;100.00;98898.09;5260255;28;20082;-66
2021/12/28 10:39:06;;;;;;;3.40;2.80;;;;;;;9.82;100.00;98891.06;5260833;28;20021;-67
2021/12/28 10:41:42;;;;;;;3.20;2.70;;;;;;;9.84;100.00;98900.69;5261019;28;20388;-67
2021/12/28 10:44:13;;;;;;;7.05;2.58;;;;;;;9.83;100.00;98896.28;5275371;28;20024;-65
2021/12/28 10:46:46;;;;;;;4.00;2.88;;;;;;;9.88;100.00;98893.34;5281434;28;20020;-68
2021/12/28 10:49:36;;;;;;;2.13;1.92;;;;;;;9.89;100.00;98889.41;5269799;28;20438;-69
2021/12/28 10:52:26;;;;;;;3.30;2.10;;;;;;;9.92;100.00;98894.31;5276363;28;20027;-67
2021/12/28 10:55:17;;;;;;;3.15;1.85;;;;;;;9.90;100.00;98891.06;5283213;28;20029;-70
2021/12/28 10:57:49;;;;;;;3.60;2.25;;;;;;;9.88;100.00;98892.53;5263679;28;20123;-69
2021/12/28 11:00:29;;;;;;;4.63;2.42;;;;;;;9.86;100.00;98881.78;5281903;28;20025;-68
2021/12/28 11:03:12;;;;;;;3.58;2.10;;;;;;;9.82;100.00;98875.31;5283412;28;20407;-68
2021/12/28 11:05:47;;;;;;;2.30;2.10;;;;;;;9.80;100.00;98878.41;5274668;28;20064;-68
2021/12/28 11:08:19;;;;;;;9.25;8.23;;;;;;;9.78;100.00;98875.13;5283839;28;20032;-69
2021/12/28 11:10:55;;;;;;;2.90;2.60;;;;;;;9.77;100.00;98856.91;5303833;28;20024;-70
2021/12/28 11:13:29;;;;;;;3.13;2.45;;;;;;;9.77;100.00;98862.47;5291317;28;20024;-69
2021/12/28 11:16:01;;;;;;;3.60;2.83;;;;;;;9.76;100.00;98851.69;5283331;28;20035;-69
2021/12/28 11:18:41;;;;;;;3.05;2.20;;;;;;;9.74;100.00;98851.22;5281709;28;20376;-69
2021/12/28 11:21:41;;;;;;;3.55;1.85;;;;;;;9.76;100.00;98849.75;5283662;28;20036;-69
2021/12/28 11:24:15;;;;;;;4.85;3.13;;;;;;;9.79;100.00;98848.25;5281255;28;20063;-69
2021/12/28 11:26:50;;;;;;;4.10;2.47;;;;;;;9.77;100.00;98858.88;5282718;28;20403;-72
2021/12/28 11:29:28;;;;;;;3.53;2.10;;;;;;;9.77;100.00;98851.38;5282570;28;20032;-71
2021/12/28 11:32:04;;;;;;;3.97;2.97;;;;;;;9.77;100.00;98840.31;5281454;28;20070;-69
2021/12/28 11:34:37;;;;;;;;;;;;;;;9.79;100.00;98843.56;5282121;28;20021;-70
2021/12/28 11:37:20;;;;;;;2.83;2.63;;;;;;;9.78;100.00;98841.13;5281950;28;19913;-71
2021/12/28 11:40:08;;;;;;;1.63;1.52;;;;;;;9.85;100.00;98835.88;5270746;28;20032;-70
2021/12/28 11:42:39;;;;;;;2.00;1.67;;;;;;;9.84;100.00;98837.00;5273161;28;20023;-71
2021/12/28 11:45:11;;;;;;;2.20;2.00;;;;;;;9.83;100.00;98829.84;5303777;28;20031;-71
2021/12/28 11:47:42;;;;;;;3.95;1.45;;;;;;;9.78;100.00;98839.16;5291206;28;20024;-71
2021/12/28 11:50:14;;;;;;;3.65;1.95;;;;;;;9.77;100.00;98833.97;5282979;28;20017;-71
2021/12/28 11:52:45;;;;;;;1.58;1.30;;;;;;;9.74;100.00;98852.06;5281723;28;20518;-71
2021/12/28 11:55:19;;;;;;;3.55;1.88;;;;;;;9.72;100.00;98850.75;5282952;28;20017;-71
2021/12/28 11:57:52;;;;;;;4.47;1.90;;;;;;;9.69;100.00;98865.25;5272036;28;20041;-72
2021/12/28 12:00:23;;;;;;;8.25;2.67;;;;;;;9.62;100.00;98860.25;5303166;28;20035;-70
2021/12/28 12:02:54;;;;;;;13.75;2.58;;;;;;;9.55;100.00;98855.22;5292638;28;20029;-71
2021/12/28 12:05:29;;;;;;;10.75;3.10;;;;;;;9.52;100.00;98850.34;5283108;28;20055;-71
2021/12/28 12:08:06;;;;;;;11.52;3.60;;;;;;;9.50;100.00;98852.63;5280668;28;20021;-71
2021/12/28 12:10:40;;;;;;;18.83;5.68;;;;;;;9.48;100.00;98854.09;5282943;28;20024;-71
2021/12/28 12:13:24;;;;;;;15.63;4.75;;;;;;;9.49;100.00;98848.25;5282593;28;20017;-71
2021/12/28 12:16:14;;;;;;;15.70;4.15;;;;;;;9.46;100.00;98845.31;5282397;28;20074;-71
2021/12/28 12:18:49;;;;;;;16.15;5.40;;;;;;;9.47;100.00;98850.53;5282891;28;20472;-71
2021/12/28 12:21:20;;;;;;;19.23;5.75;;;;;;;9.46;99.81;98848.06;5282284;28;20025;-71
2021/12/28 12:23:52;;;;;;;20.05;7.00;;;;;;;9.46;99.12;98851.69;5282678;28;20170;-71
2021/12/28 12:26:34;;;;;;;17.67;5.20;;;;;;;9.49;99.37;98851.00;5273332;28;20472;-71
2021/12/28 12:29:20;;;;;;;22.20;6.18;;;;;;;9.49;97.44;98855.72;5261161;28;20037;-72
2021/12/28 12:31:52;;;;;;;;;;;;;;;9.55;96.93;98855.22;5261946;28;20029;-71
2021/12/28 12:34:34;;;;;;;22.92;5.93;;;;;;;9.53;95.03;98849.19;5261842;28;19913;-70
2021/12/28 12:37:16;;;;;;;23.38;6.53;;;;;;;9.54;94.63;98848.06;5261201;28;20025;-70
2021/12/28 12:39:54;;;;;;;23.15;6.28;;;;;;;9.56;94.44;98842.19;5285774;28;20084;-70
2021/12/28 12:42:26;;;;;;;28.92;10.13;;;;;;;9.62;93.24;98854.69;5293043;28;20020;-72
2021/12/28 12:44:57;;;;;;;23.13;8.50;;;;;;;9.64;92.75;98857.97;5300752;28;20091;-72
2021/12/28 12:47:28;;;;;;;19.42;5.82;;;;;;;9.65;92.97;98853.22;5288311;28;20107;-72
2021/12/28 12:50:09;;;;;;;32.17;9.98;;;;;;;9.63;91.99;98858.28;5285893;28;20031;-71
2021/12/28 12:52:41;;;;;;;27.67;7.00;;;;;;;9.66;91.65;98850.09;5286549;28;20024;-69
2021/12/28 12:55:32;;;;;;;24.38;6.63;;;;;;;9.67;90.31;98857.28;5281453;28;20063;-68
2021/12/28 12:58:16;;;;;;;26.40;7.25;;;;;;;9.70;90.80;98841.97;5284211;28;20048;-71
2021/12/28 13:00:48;;;;;;;21.42;7.43;;;;;;;9.76;89.71;98855.28;5283169;28;20033;-69
2021/12/28 13:03:33;;;;;;;26.02;6.22;;;;;;;9.72;88.47;98850.75;5282833;28;20061;-72
2021/12/28 13:06:04;;;;;;;28.47;6.83;;;;;;;9.72;87.39;98845.22;5295117;28;20020;-70
2021/12/28 13:08:35;;;;;;;29.88;7.70;;;;;;;9.74;88.47;98853.97;5285650;28;20398;-69
2021/12/28 13:11:09;;;;;;;27.73;6.47;;;;;;;9.78;87.79;98841.91;5285135;28;20048;-68
2021/12/28 13:13:41;;;;;;;26.17;7.38;;;;;;;9.84;86.50;98844.50;5285593;28;20032;-68
2021/12/28 13:16:12;;;;;;;28.15;7.95;;;;;;;9.88;85.62;98845.47;5280989;28;20380;-68
2021/12/28 13:18:43;;;;;;;18.75;6.78;;;;;;;9.91;84.17;98850.34;5274804;28;20036;-68
2021/12/28 13:21:19;;;;;;;26.77;6.88;;;;;;;9.95;82.96;98841.03;5285305;28;20025;-68
2021/12/28 13:24:09;;;;;;;28.90;7.53;;;;;;;9.96;83.67;98852.91;5286052;28;20100;-68
2021/12/28 13:26:46;;;;;;;31.60;7.53;;;;;;;9.98;83.25;98856.16;5285588;28;20028;-64
2021/12/28 13:29:30;;;;;;;23.55;8.55;;;;;;;9.97;83.09;98860.06;5269989;28;20079;-64
2021/12/28 13:32:13;;;;;;;24.85;7.05;;;;;;;10.00;81.30;98871.31;5263984;28;20036;-66
2021/12/28 13:35:09;;;;;;;14.32;5.70;;;;;;;10.00;79.02;98871.31;5274133;28;20028;-66
2021/12/28 13:37:54;;;;;;;18.33;5.63;;;;;;;10.00;79.49;98864.97;5264388;28;20120;-65
2021/12/28 13:40:35;;;;;;;16.40;4.78;;;;;;;9.83;79.25;98885.22;5263333;28;20021;-67
2021/12/28 13:43:18;;;;;;;13.07;4.60;;;;;;;9.68;81.63;98891.31;5264319;28;20025;-68
2021/12/28 13:45:54;;;;;;;14.77;4.57;;;;;;;9.58;80.82;98893.28;5278906;28;20488;-67
2021/12/28 13:48:31;;;;;;;14.27;5.32;;;;;;;9.49;82.65;98878.69;5285395;28;20468;-67
2021/12/28 13:51:11;;;;;;;15.30;4.68;;;;;;;9.42;84.42;98888.63;5284743;28;20091;-67
2021/12/28 13:53:49;;;;;;;11.02;4.03;;;;;;;9.36;82.51;98886.03;5283950;28;20032;-67
2021/12/28 13:56:33;;;;;;;13.77;3.03;;;;;;;9.38;81.40;98874.63;5264556;28;20025;-68
2021/12/28 13:59:07;;;;;;;15.13;4.75;;;;;;;9.28;82.55;98877.75;5266322;28;20119;-66
2021/12/28 14:01:43;;;;;;;10.68;2.88;;;;;;;9.28;82.60;98881.34;5275727;28;20494;-67
2021/12/28 14:04:17;;;;;;;15.80;6.78;;;;;;;9.29;82.19;98884.91;5306194;28;20024;-68
2021/12/28 14:06:52;;;;;;;8.77;3.28;;;;;;;9.19;82.34;98886.06;5290219;28;20118;-67
2021/12/28 14:09:28;;;;;;;7.68;2.95;;;;;;;9.14;83.04;98878.75;5280344;28;20021;-68
2021/12/28 14:12:00;;;;;;;8.05;2.50;;;;;;;9.11;83.07;98882.19;5267671;28;20056;-67
2021/12/28 14:14:35;;;;;;;6.45;2.35;;;;;;;9.07;83.52;98895.03;5301640;28;20052;-67
2021/12/28 14:17:13;;;;;;;10.80;2.50;;;;;;;9.10;83.95;98894.38;5298068;28;20024;-67
2021/12/28 14:19:53;;;;;;;10.20;3.22;;;;;;;9.05;84.06;98891.78;5284492;28;20365;-67
2021/12/28 14:22:26;;;;;;;12.32;3.05;;;;;;;8.96;84.92;98893.75;5279788;28;20020;-67
2021/12/28 14:24:57;;;;;;;8.68;2.80;;;;;;;8.93;84.81;98884.16;5274014;28;20049;-67
2021/12/28 14:27:31;;;;;;;11.07;2.90;;;;;;;8.82;84.77;98887.56;5276395;28;20067;-68
2021/12/28 14:30:10;;;;;;;6.30;2.30;;;;;;;8.86;86.03;98880.25;5283206;28;20020;-67
2021/12/28 14:32:47;;;;;;;7.88;2.63;;;;;;;8.89;85.09;98898.94;5282248;28;20431;-68
2021/12/28 14:35:25;;;;;;;6.18;3.15;;;;;;;8.81;85.37;98897.00;5283391;28;20032;-69
2021/12/28 14:37:56;;;;;;;7.68;2.28;;;;;;;8.76;85.00;98894.41;5283783;28;20375;-69
2021/12/28 14:40:31;;;;;;;7.57;2.33;;;;;;;8.70;85.06;98883.50;5283260;28;20082;-69
2021/12/28 14:43:08;;;;;;;4.30;2.13;;;;;;;8.65;85.80;98886.44;5262328;28;20025;-67
2021/12/28 14:45:40;;;;;;;5.18;2.13;;;;;;;8.61;86.34;98887.41;5263106;28;20060;-67
2021/12/28 14:48:18;;;;;;;4.72;2.33;;;;;;;8.57;86.52;98886.44;5278239;28;20071;-68
2021/12/28 14:50:49;;;;;;;8.35;3.08;;;;;;;8.50;86.54;98878.63;5282056;28;20021;-68
2021/12/28 14:53:22;;;;;;;5.70;2.15;;;;;;;8.43;86.90;98890.13;5272871;28;20036;-67
2021/12/28 14:55:57;;;;;;;4.63;1.77;;;;;;;8.38;87.24;98884.72;5262426;28;20385;-67
2021/12/28 14:58:29;;;;;;;4.43;1.52;;;;;;;8.37;87.27;98882.31;5275206;28;20040;-67
2021/12/28 15:01:00;;;;;;;4.78;2.35;;;;;;;8.45;87.43;98884.31;5281769;28;20108;-68
2021/12/28 15:03:34;;;;;;;4.07;1.98;;;;;;;8.36;88.21;98887.03;5282782;28;20116;-68
2021/12/28 15:06:06;;;;;;;3.22;1.35;;;;;;;8.32;88.06;98896.28;5282853;28;20050;-68
2021/12/28 15:08:38;;;;;;;4.82;1.67;;;;;;;8.32;88.81;98890.75;5278462;28;20028;-66
2021/12/28 15:11:09;;;;;;;2.95;1.20;;;;;;;8.34;89.30;98894.81;5261738;28;20082;-66
2021/12/28 15:13:43;;;;;;;5.97;2.25;;;;;;;8.33;89.44;98893.19;5262366;28;20028;-66
2021/12/28 15:16:15;;;;;;;4.60;1.88;;;;;;;8.21;90.36;98902.09;5275845;28;20476;-66
2021/12/28 15:18:46;;;;;;;15.15;8.30;;;;;;;8.23;90.95;98894.31;5282571;28;20429;-65
2021/12/28 15:21:18;;;;;;;5.07;1.95;;;;;;;8.21;91.16;98901.31;5282745;28;20059;-66
2021/12/28 15:23:49;;;;;;;5.85;1.90;;;;;;;8.30;92.02;98898.53;5282331;28;20024;-67
2021/12/28 15:26:20;;;;;;;4.68;1.88;;;;;;;8.25;92.31;98891.22;5274786;28;20108;-66
2021/12/28 15:28:52;;;;;;;7.22;2.58;;;;;;;8.20;92.77;98905.97;5267690;28;20116;-67
2021/12/28 15:31:23;;;;;;;6.68;2.78;;;;;;;8.19;93.38;98896.09;5280287;28;20702;-67
2021/12/28 15:33:54;;;;;;;7.25;2.40;;;;;;;8.09;94.04;98904.66;5282818;28;20035;-67
2021/12/28 15:36:28;;;;;;;5.47;2.47;;;;;;;8.26;94.26;98910.25;5280699;28;20033;-66
2021/12/28 15:39:01;;;;;;;6.00;2.15;;;;;;;8.26;94.00;98907.47;5282241;28;20380;-67
2021/12/28 15:41:32;;;;;;;8.15;3.20;;;;;;;8.30;94.45;98910.41;5283060;28;20029;-67
2021/12/28 15:44:04;;;;;;;7.93;4.50;;;;;;;8.33;94.52;98908.94;5283001;28;20050;-67
2021/12/28 15:46:41;;;;;;;5.07;2.30;;;;;;;8.37;94.32;98909.94;5274332;28;20025;-66
2021/12/28 15:49:15;;;;;;;6.13;2.90;;;;;;;8.31;93.93;98906.53;5282356;28;20043;-67
2021/12/28 15:51:50;;;;;;;6.85;3.70;;;;;;;8.30;94.10;98909.59;5280880;28;20052;-65
2021/12/28 15:54:21;;;;;;;6.32;2.75;;;;;;;8.28;94.82;98915.41;5281925;28;20426;-67
2021/12/28 15:56:53;;;;;;;11.07;8.85;;;;;;;8.25;94.95;98921.59;5280537;28;20063;-66
2021/12/28 15:59:24;;;;;;;7.70;4.63;;;;;;;8.33;95.44;98917.22;5280853;28;20037;-67
2021/12/28 16:01:56;;;;;;;38.38;22.15;;;;;;;8.26;95.01;98915.75;5270310;28;20029;-68
2021/12/28 16:04:28;;;;;;;13.60;4.43;;;;;;;8.25;95.02;98918.84;5276555;28;20029;-69
2021/12/28 16:06:59;;;;;;;6.43;2.65;;;;;;;8.23;95.48;98921.09;5280186;28;20033;-70
2021/12/28 16:09:31;;;;;;;12.15;3.47;;;;;;;8.28;95.66;98934.75;5282519;28;20048;-69
2021/12/28 16:12:03;;;;;;;5.15;2.30;;;;;;;8.35;95.31;98929.59;5282777;28;20034;-68
2021/12/28 16:14:34;;;;;;;6.32;3.20;;;;;;;8.31;96.13;98938.81;5281919;28;20056;-68
2021/12/28 16:17:06;;;;;;;8.05;3.53;;;;;;;8.30;96.51;98942.72;5280519;28;20077;-67
2021/12/28 16:19:38;;;;;;;8.13;3.70;;;;;;;8.28;96.41;98943.88;5284563;28;20055;-67
2021/12/28 16:22:12;;;;;;;8.63;4.15;;;;;;;8.17;96.44;98945.28;5286164;28;20044;-68
2021/12/28 16:24:45;;;;;;;10.88;3.90;;;;;;;8.13;97.49;98949.84;5286393;28;20024;-67
2021/12/28 16:27:16;;;;;;;6.00;3.15;;;;;;;8.07;98.58;98956.63;5281355;28;20042;-67
2021/12/28 16:29:47;;;;;;;7.97;4.18;;;;;;;8.18;98.76;98951.63;5285096;28;20029;-66
2021/12/28 16:32:19;;;;;;;9.60;4.78;;;;;;;8.17;98.34;98959.09;5286521;28;20024;-68
2021/12/28 16:34:50;;;;;;;6.05;3.22;;;;;;;8.11;99.51;98971.44;5286194;28;20017;-68
2021/12/28 16:37:22;;;;;;;8.05;4.47;;;;;;;8.16;99.49;98971.28;5286608;28;20498;-67
2021/12/28 16:39:53;;;;;;;6.75;3.10;;;;;;;8.15;99.84;98969.63;5281961;28;20033;-67
2021/12/28 16:42:24;;;;;;;7.47;3.28;;;;;;;8.11;100.00;98978.91;5276058;28;20028;-67
2021/12/28 16:44:56;;;;;;;12.38;7.30;;;;;;;8.06;99.87;98983.41;5286166;28;20044;-68
2021/12/28 16:47:27;;;;;;;8.43;4.60;;;;;;;8.15;99.85;98988.97;5289237;28;20423;-68
2021/12/28 16:50:01;;;;;;;5.70;3.15;;;;;;;8.17;100.00;98992.22;5299322;28;20029;-67
2021/12/28 16:52:33;;;;;;;22.73;16.98;;;;;;;8.16;100.00;98993.38;5265361;28;20029;-67
2021/12/28 16:55:07;;;;;;;12.98;6.65;;;;;;;8.05;100.00;99003.91;5264650;28;20051;-67
2021/12/28 16:57:40;;;;;;;10.00;3.92;;;;;;;8.10;100.00;99000.16;5275316;28;20053;-67
2021/12/28 17:00:14;;;;;;;19.42;12.52;;;;;;;8.07;100.00;99004.38;5280630;28;20021;-67
2021/12/28 17:02:46;;;;;;;12.23;5.70;;;;;;;8.09;100.00;99004.06;5264308;28;20028;-67
2021/12/28 17:05:17;;;;;;;7.05;4.88;;;;;;;8.05;100.00;99014.94;5265374;28;20283;-68
2021/12/28 17:07:49;;;;;;;8.07;3.35;;;;;;;8.06;100.00;99015.75;5264791;28;20104;-67
2021/12/28 17:10:21;;;;;;;5.13;2.40;;;;;;;8.07;100.00;99011.84;5269954;28;20024;-67
2021/12/28 17:12:53;;;;;;;6.13;2.83;;;;;;;8.10;100.00;99025.00;5285818;28;20381;-67
2021/12/28 17:15:25;;;;;;;5.63;2.47;;;;;;;8.07;100.00;99028.41;5283682;28;20039;-67
2021/12/28 17:17:56;;;;;;;9.80;3.83;;;;;;;7.97;100.00;99035.00;5284602;28;20024;-66
2021/12/28 17:20:27;;;;;;;6.50;4.15;;;;;;;7.91;100.00;99029.97;5285564;28;20078;-67
2021/12/28 17:22:58;;;;;;;7.13;3.58;;;;;;;7.95;100.00;99040.06;5285789;28;20024;-67
2021/12/28 17:25:30;;;;;;;11.00;4.85;;;;;;;7.96;100.00;99044.44;5275053;28;20032;-66
2021/12/28 17:28:03;;;;;;;8.50;3.40;;;;;;;7.99;100.00;99045.75;5280185;28;20511;-68
2021/12/28 17:30:35;;;;;;;11.50;4.30;;;;;;;8.06;100.00;99048.88;5283784;28;20036;-68
